createdAt,value
2023-04-18T00:00:10.667Z,64.13
2023-04-18T00:05:33.314Z,63.10
2023-04-18T00:10:36.098Z,60.41
2023-04-18T00:15:38.940Z,57.80
2023-04-18T00:20:41.821Z,64.28
2023-04-18T00:25:44.601Z,63.13
2023-04-18T00:30:47.418Z,61.00
2023-04-18T00:35:50.287Z,59.86
2023-04-18T00:40:53.061Z,64.27
2023-04-18T00:45:57.263Z,62.35
2023-04-18T00:51:00.740Z,58.63
2023-04-18T00:56:04.954Z,63.52
2023-04-18T01:01:08.025Z,63.91
2023-04-18T01:06:10.894Z,60.41
2023-04-18T01:11:13.663Z,58.73
2023-04-18T01:16:16.465Z,63.80
2023-04-18T01:21:20.470Z,64.80
2023-04-18T01:26:23.334Z,60.93
2023-04-18T01:31:26.235Z,61.64
2023-04-18T01:36:29.154Z,64.41
2023-04-18T01:41:33.094Z,60.82
2023-04-18T01:46:36.740Z,58.69
2023-04-18T01:51:39.573Z,64.11
2023-04-18T01:56:42.445Z,61.89
2023-04-18T02:01:45.270Z,60.99
2023-04-18T02:06:48.142Z,64.83
2023-04-18T02:11:51.071Z,61.92
2023-04-18T02:16:53.891Z,59.19
2023-04-18T02:21:56.742Z,64.83
2023-04-18T02:26:59.495Z,64.21
2023-04-18T02:32:02.342Z,60.97
2023-04-18T02:37:05.297Z,58.91
2023-04-18T02:42:08.075Z,63.08
2023-04-18T02:47:10.880Z,64.50
2023-04-18T02:52:14.857Z,61.23
2023-04-18T02:57:17.733Z,58.83
2023-04-18T03:02:21.147Z,64.66
2023-04-18T03:07:24.128Z,62.32
2023-04-18T03:12:26.928Z,59.30
2023-04-18T03:17:29.761Z,62.68
2023-04-18T03:22:32.556Z,65.49
2023-04-18T03:27:35.734Z,61.53
2023-04-18T03:32:38.746Z,61.57
2023-04-18T03:37:41.514Z,57.67
2023-04-18T03:42:44.400Z,61.65
2023-04-18T03:47:47.255Z,62.76
2023-04-18T03:52:50.022Z,57.18
2023-04-18T03:57:52.815Z,60.87
2023-04-18T04:02:55.836Z,66.54
2023-04-18T04:07:58.865Z,64.13
2023-04-18T04:13:01.663Z,58.47
2023-04-18T04:18:06.289Z,58.40
2023-04-18T04:23:10.143Z,64.28
2023-04-18T04:28:13.779Z,58.67
2023-04-18T04:33:20.819Z,57.50
2023-04-18T04:38:23.593Z,61.81
2023-04-18T04:43:28.903Z,66.53
2023-04-18T04:48:31.708Z,60.44
2023-04-18T04:53:34.635Z,58.24
2023-04-18T04:58:37.449Z,64.74
2023-04-18T05:03:40.526Z,59.85
2023-04-18T05:08:43.531Z,58.79
2023-04-18T05:13:46.325Z,63.48
2023-04-18T05:18:49.052Z,57.85
2023-04-18T05:23:51.930Z,59.97
2023-04-18T05:28:55.020Z,66.15
2023-04-18T05:33:57.750Z,60.34
2023-04-18T05:39:02.902Z,59.21
2023-04-18T05:44:07.086Z,62.35
2023-04-18T05:49:10.720Z,57.50
2023-04-18T05:54:13.801Z,60.00
2023-04-18T05:59:17.550Z,65.72
2023-04-18T06:04:21.477Z,60.20
2023-04-18T06:09:24.509Z,54.80
2023-04-18T06:14:28.432Z,57.45
2023-04-18T06:19:36.002Z,62.49
2023-04-18T06:24:42.523Z,56.29
2023-04-18T06:29:45.660Z,56.20
2023-04-18T06:34:49.719Z,55.59
2023-04-18T06:39:56.146Z,57.86
2023-04-18T06:44:59.805Z,54.08
2023-04-18T06:50:06.127Z,45.18
2023-04-18T06:55:10.002Z,45.96
2023-04-18T07:00:13.739Z,47.62
2023-04-18T07:05:17.437Z,47.83
2023-04-18T07:10:21.347Z,52.00
2023-04-18T07:15:31.153Z,52.68
2023-04-18T07:20:40.467Z,54.63
2023-04-18T07:25:43.373Z,54.91
2023-04-18T07:30:46.217Z,53.42
2023-04-18T07:35:50.705Z,48.22
2023-04-18T07:41:02.712Z,45.43
2023-04-18T07:46:07.049Z,41.43
2023-04-18T07:51:11.605Z,38.67
2023-04-18T07:56:15.565Z,39.36
2023-04-18T08:01:20.970Z,35.58
2023-04-18T08:06:27.220Z,34.84
2023-04-18T08:11:30.454Z,34.68
2023-04-18T08:16:33.432Z,35.39
2023-04-18T08:21:37.353Z,34.59
2023-04-18T08:26:40.520Z,34.53
2023-04-18T08:31:43.456Z,33.24
2023-04-18T08:36:46.371Z,34.67
2023-04-18T08:41:57.355Z,36.86
2023-04-18T08:47:02.096Z,39.34
2023-04-18T08:52:14.064Z,38.28
2023-04-18T08:57:18.416Z,37.72
2023-04-18T09:02:23.542Z,37.77
2023-04-18T09:07:30.507Z,38.95
2023-04-18T09:12:42.462Z,36.68
2023-04-18T09:17:51.073Z,36.20
2023-04-18T09:23:00.837Z,38.71
2023-04-18T09:28:27.088Z,41.70
2023-04-18T09:33:34.538Z,43.81
2023-04-18T09:38:41.396Z,44.87
2023-04-18T09:43:45.782Z,45.66
2023-04-18T09:48:53.238Z,46.75
2023-04-18T09:53:56.529Z,47.05
2023-04-18T09:59:07.347Z,46.44
2023-04-18T10:04:12.131Z,46.06
2023-04-18T10:09:16.476Z,46.01
2023-04-18T10:14:20.122Z,45.43
2023-04-18T10:19:28.681Z,46.02
2023-04-18T10:24:57.072Z,45.97
2023-04-18T10:29:59.970Z,46.61
2023-04-18T10:35:05.472Z,46.67
2023-04-18T10:40:10.566Z,47.15
2023-04-18T10:45:26.860Z,45.38
2023-04-18T10:50:29.927Z,44.95
2023-04-18T10:55:35.872Z,45.21
2023-04-18T11:00:40.522Z,45.41
2023-04-18T11:05:46.447Z,46.15
2023-04-18T11:11:03.202Z,46.52
2023-04-18T11:16:08.740Z,47.21
2023-04-18T11:21:43.385Z,45.21
2023-04-18T11:26:46.288Z,45.08
2023-04-18T11:31:55.263Z,44.87
2023-04-18T11:37:00.634Z,43.94
2023-04-18T11:42:03.920Z,44.06
2023-04-18T11:47:34.983Z,44.98
2023-04-18T11:52:40.354Z,45.88
2023-04-18T11:57:49.392Z,46.20
2023-04-18T12:02:57.437Z,46.54
2023-04-18T12:08:17.355Z,46.33
2023-04-18T12:13:26.943Z,46.68
2023-04-18T12:18:42.739Z,46.51
2023-04-18T12:30:42.725Z,45.97
2023-04-18T12:35:48.391Z,46.41
2023-04-18T12:40:52.593Z,46.26
2023-04-18T12:46:03.353Z,46.80
2023-04-18T12:51:07.188Z,47.10
2023-04-18T12:56:10.018Z,45.69
2023-04-18T13:01:18.064Z,46.27
2023-04-18T13:06:21.530Z,47.94
2023-04-18T13:11:28.519Z,48.05
2023-04-18T13:16:31.843Z,44.47
2023-04-18T13:21:35.168Z,44.59
2023-04-18T13:26:40.197Z,44.44
2023-04-18T13:31:43.243Z,45.95
2023-04-18T13:36:46.077Z,47.66
2023-04-18T13:41:50.795Z,48.94
2023-04-18T13:46:53.732Z,49.88
2023-04-18T13:51:59.367Z,50.92
2023-04-18T13:57:04.024Z,51.89
2023-04-18T14:02:08.719Z,52.82
2023-04-18T14:07:14.552Z,54.27
2023-04-18T14:12:48.665Z,55.37
2023-04-18T14:17:51.880Z,56.14
2023-04-18T14:22:54.759Z,56.53
2023-04-18T14:28:08.155Z,56.48
2023-04-18T14:33:11.114Z,54.70
2023-04-18T14:38:13.927Z,53.62
2023-04-18T14:43:16.926Z,54.94
2023-04-18T14:48:22.243Z,55.95
2023-04-18T14:53:25.398Z,56.59
2023-04-18T14:58:28.257Z,57.11
2023-04-18T15:03:31.496Z,56.99
2023-04-18T15:08:35.146Z,57.12
2023-04-18T15:13:40.452Z,57.32
2023-04-18T15:18:44.059Z,57.57
2023-04-18T15:23:46.947Z,58.23
2023-04-18T15:28:50.233Z,59.06
2023-04-18T15:33:53.033Z,59.85
2023-04-18T15:38:56.080Z,60.91
2023-04-18T15:43:58.873Z,61.18
2023-04-18T15:49:01.771Z,61.15
2023-04-18T15:54:04.700Z,61.65
2023-04-18T15:59:13.935Z,61.99
2023-04-18T16:04:19.088Z,62.39
2023-04-18T16:09:22.464Z,57.43
2023-04-18T16:14:25.376Z,59.32
2023-04-18T16:19:28.312Z,61.00
2023-04-18T16:24:31.262Z,61.88
2023-04-18T16:29:34.830Z,64.44
2023-04-18T16:34:37.675Z,58.52
2023-04-18T16:39:40.814Z,56.08
2023-04-18T16:44:47.205Z,57.81
2023-04-18T16:49:52.145Z,58.59
2023-04-18T16:54:55.117Z,59.13
2023-04-18T16:59:58.722Z,62.48
2023-04-18T17:05:02.752Z,58.32
2023-04-18T17:10:08.807Z,59.01
2023-04-18T17:15:13.430Z,61.19
2023-04-18T17:20:17.909Z,61.93
2023-04-18T17:25:21.234Z,58.40
2023-04-18T17:30:24.405Z,61.64
2023-04-18T17:35:27.439Z,59.71
2023-04-18T17:40:31.322Z,60.24
2023-04-18T17:45:34.566Z,62.53
2023-04-18T17:50:42.984Z,58.94
2023-04-18T17:55:48.997Z,62.03
2023-04-18T18:00:53.037Z,59.17
2023-04-18T18:05:56.244Z,60.99
2023-04-18T18:11:01.727Z,60.91
2023-04-18T18:16:05.891Z,57.87
2023-04-18T18:21:08.798Z,61.87
2023-04-18T18:26:12.456Z,60.80
2023-04-18T18:31:15.262Z,60.47
2023-04-18T18:36:18.112Z,61.65
2023-04-18T18:41:24.594Z,59.43
2023-04-18T18:46:27.833Z,62.44
2023-04-18T18:51:31.087Z,59.30
2023-04-18T18:56:33.851Z,59.65
2023-04-18T19:01:37.086Z,62.61
2023-04-18T19:06:40.337Z,59.01
2023-04-18T19:11:43.082Z,61.72
2023-04-18T19:16:45.980Z,60.12
2023-04-18T19:21:48.772Z,57.57
2023-04-18T19:26:51.587Z,61.52
2023-04-18T19:31:54.409Z,62.84
2023-04-18T19:36:57.458Z,56.04
2023-04-18T19:42:02.000Z,58.95
2023-04-18T19:47:04.885Z,60.68
2023-04-18T19:52:07.802Z,62.37
2023-04-18T19:57:10.629Z,56.55
2023-04-18T20:02:15.143Z,57.06
2023-04-18T20:07:18.006Z,58.79
2023-04-18T20:12:21.075Z,59.75
2023-04-18T20:17:23.858Z,61.56
2023-04-18T20:22:26.920Z,65.06
2023-04-18T20:27:29.741Z,57.75
2023-04-18T20:32:33.582Z,56.65
2023-04-18T20:37:36.758Z,60.28
2023-04-18T20:42:39.913Z,61.89
2023-04-18T20:47:43.288Z,65.03
2023-04-18T20:52:49.190Z,56.21
2023-04-18T20:57:52.024Z,56.61
2023-04-18T21:02:54.980Z,61.52
2023-04-18T21:07:59.813Z,62.99
2023-04-18T21:13:02.595Z,57.03
2023-04-18T21:18:05.533Z,59.06
2023-04-18T21:23:08.413Z,60.97
2023-04-18T21:28:12.462Z,65.56
2023-04-18T21:33:15.236Z,58.19
2023-04-18T21:38:18.116Z,57.65
2023-04-18T21:43:20.983Z,61.50
2023-04-18T21:48:23.742Z,62.26
2023-04-18T21:53:26.512Z,57.44
2023-04-18T21:58:29.785Z,60.28
2023-04-18T22:03:34.224Z,65.16
2023-04-18T22:08:37.197Z,58.71
2023-04-18T22:13:40.196Z,56.23
2023-04-18T22:18:43.015Z,61.09
2023-04-18T22:23:45.944Z,65.11
2023-04-18T22:28:48.710Z,58.00
2023-04-18T22:33:51.516Z,55.59
2023-04-18T22:38:54.354Z,59.68
2023-04-18T22:43:57.081Z,64.65
2023-04-18T22:48:59.864Z,57.59
2023-04-18T22:54:02.670Z,59.37
2023-04-18T22:59:05.407Z,63.97
2023-04-18T23:04:08.454Z,60.52
2023-04-18T23:09:11.453Z,55.47
2023-04-18T23:14:17.416Z,58.91
2023-04-18T23:19:20.235Z,64.13
2023-04-18T23:24:23.115Z,61.49
2023-04-18T23:29:25.914Z,55.23
2023-04-18T23:34:28.710Z,58.09
2023-04-18T23:39:31.490Z,60.58
2023-04-18T23:44:34.294Z,66.01
2023-04-18T23:49:37.071Z,59.66
2023-04-18T23:54:39.869Z,56.48
2023-04-18T23:59:42.645Z,59.49
